Time;durP1;ratioP1;P1;durP2;ratioP2;P2;SDS_P1;SDS_P2;PMS_P1;PMS_P2;Temp;Humidity;BMP_temperature;BMP_pressure;BME280_temperature;BME280_humidity;BME280_pressure;Samples;Min_cycle;Max_cycle;Signal;HPM_P1;HPM_P2
2022/11/29 00:01:56;;;;;;;279.85;42.30;;;;;;;;;;5000339;28;20034;-77
2022/11/29 00:04:22;;;;;;;342.38;48.22;;;;;;;;;;4980057;28;20080;-78
2022/11/29 00:06:48;;;;;;;282.75;43.20;;;;;;;;;;4986986;28;20500;-77
2022/11/29 00:09:14;;;;;;;277.98;42.55;;;;;;;;;;4995492;28;20128;-78
2022/11/29 00:14:27;;;;;;;213.40;38.10;;;;;;;;;;4994726;28;20055;-77
2022/11/29 00:16:54;;;;;;;176.63;33.50;;;;;;;;;;4984172;28;20052;-77
2022/11/29 00:19:20;;;;;;;177.77;32.78;;;;;;;;;;5001339;28;20123;-78
2022/11/29 00:21:46;;;;;;;148.52;30.52;;;;;;;;;;5001004;28;20520;-77
2022/11/29 00:24:13;;;;;;;125.70;25.88;;;;;;;;;;4998349;28;20402;-77
2022/11/29 00:26:39;;;;;;;144.10;27.23;;;;;;;;;;4999805;28;20139;-78
2022/11/29 00:29:05;;;;;;;126.72;26.95;;;;;;;;;;4992451;28;20049;-78
2022/11/29 00:31:32;;;;;;;157.95;29.55;;;;;;;;;;5000891;28;20387;-77
2022/11/29 00:33:59;;;;;;;223.45;31.65;;;;;;;;;;5001263;28;20060;-78
2022/11/29 00:36:26;;;;;;;207.95;31.02;;;;;;;;;;4988161;28;20073;-77
2022/11/29 00:38:52;;;;;;;258.42;32.22;;;;;;;;;;4996944;28;20065;-78
2022/11/29 00:41:18;;;;;;;320.10;32.20;;;;;;;;;;4999895;28;20052;-79
2022/11/29 00:43:44;;;;;;;336.58;33.72;;;;;;;;;;5001175;28;20042;-78
2022/11/29 00:46:11;;;;;;;357.63;36.75;;;;;;;;;;4997520;28;20057;-78
2022/11/29 00:48:37;;;;;;;347.13;32.67;;;;;;;;;;4983879;28;20135;-79
2022/11/29 00:51:04;;;;;;;429.27;34.88;;;;;;;;;;4980770;28;20042;-79
2022/11/29 00:53:30;;;;;;;338.10;30.33;;;;;;;;;;4997840;28;20045;-79
2022/11/29 00:55:56;;;;;;;428.38;35.13;;;;;;;;;;4974000;28;20057;-78
2022/11/29 00:58:22;;;;;;;386.52;36.47;;;;;;;;;;4996628;28;20131;-79
2022/11/29 01:00:48;;;;;;;309.85;33.08;;;;;;;;;;4982290;28;20157;-78
2022/11/29 01:03:15;;;;;;;393.63;36.13;;;;;;;;;;4999320;28;20041;-78
2022/11/29 01:05:41;;;;;;;405.10;37.97;;;;;;;;;;4997950;28;20041;-78
2022/11/29 01:08:08;;;;;;;385.88;32.72;;;;;;;;;;4986369;28;20064;-78
2022/11/29 01:10:34;;;;;;;314.42;32.42;;;;;;;;;;4999995;28;20049;-78
2022/11/29 01:13:00;;;;;;;344.65;31.27;;;;;;;;;;4981594;28;20424;-78
2022/11/29 01:15:26;;;;;;;271.30;32.67;;;;;;;;;;4998090;28;20172;-78
2022/11/29 01:17:52;;;;;;;337.45;34.85;;;;;;;;;;4998956;28;20045;-78
2022/11/29 01:20:19;;;;;;;333.23;33.33;;;;;;;;;;4980975;28;20056;-79
2022/11/29 01:22:45;;;;;;;318.25;31.60;;;;;;;;;;4977893;28;20052;-79
2022/11/29 01:25:12;;;;;;;268.02;31.38;;;;;;;;;;4980702;28;20044;-78
2022/11/29 01:27:38;;;;;;;299.10;32.35;;;;;;;;;;4999008;28;20486;-78
2022/11/29 01:30:05;;;;;;;269.45;31.73;;;;;;;;;;4995053;28;20579;-79
2022/11/29 01:32:31;;;;;;;310.50;31.40;;;;;;;;;;4976273;28;20056;-79
2022/11/29 01:34:57;;;;;;;396.90;34.55;;;;;;;;;;4993649;28;20053;-78
2022/11/29 01:37:23;;;;;;;329.83;30.33;;;;;;;;;;4980646;28;20045;-78
2022/11/29 01:39:49;;;;;;;303.95;29.67;;;;;;;;;;4971358;28;20104;-79
2022/11/29 01:42:15;;;;;;;306.23;27.73;;;;;;;;;;4995591;28;20099;-78
2022/11/29 01:44:45;;;;;;;264.77;28.20;;;;;;;;;;4993636;28;20042;-78
2022/11/29 01:47:11;;;;;;;263.25;27.13;;;;;;;;;;4997194;28;20568;-78
2022/11/29 01:49:40;;;;;;;255.48;30.10;;;;;;;;;;4975375;28;20390;-79
2022/11/29 01:52:06;;;;;;;281.60;25.40;;;;;;;;;;4986062;28;20041;-78
2022/11/29 01:54:34;;;;;;;275.58;28.17;;;;;;;;;;4997757;28;20134;-78
2022/11/29 01:57:02;;;;;;;265.85;27.00;;;;;;;;;;4996180;28;20635;-79
2022/11/29 01:59:28;;;;;;;270.25;26.58;;;;;;;;;;4995500;28;20128;-79
2022/11/29 02:02:00;;;;;;;270.50;30.58;;;;;;;;;;4985607;28;20045;-78
2022/11/29 02:04:26;;;;;;;267.42;26.17;;;;;;;;;;4995004;28;20053;-79
2022/11/29 02:06:53;;;;;;;312.30;32.95;;;;;;;;;;4994763;28;20072;-78
2022/11/29 02:09:20;;;;;;;230.00;27.55;;;;;;;;;;5004247;28;20066;-78
2022/11/29 02:11:46;;;;;;;204.52;27.95;;;;;;;;;;4990233;28;20187;-78
2022/11/29 02:14:34;;;;;;;173.05;29.67;;;;;;;;;;4994316;28;20069;-78
2022/11/29 02:17:06;;;;;;;173.73;25.60;;;;;;;;;;4976107;28;20148;-78
2022/11/29 02:19:41;;;;;;;188.85;28.02;;;;;;;;;;4993594;28;21870;-78
2022/11/29 02:22:15;;;;;;;178.02;27.58;;;;;;;;;;4991306;28;20124;-78
2022/11/29 02:24:47;;;;;;;167.18;26.80;;;;;;;;;;4987291;28;20136;-78
2022/11/29 02:27:25;;;;;;;162.05;27.55;;;;;;;;;;4987468;28;20077;-78
2022/11/29 02:29:54;;;;;;;157.30;27.75;;;;;;;;;;4978703;28;20509;-78
2022/11/29 02:32:20;;;;;;;124.10;25.90;;;;;;;;;;4986554;28;20037;-78
2022/11/29 02:35:12;;;;;;;112.80;23.67;;;;;;;;;;4973945;28;20109;-78
2022/11/29 02:37:46;;;;;;;100.57;23.75;;;;;;;;;;4977353;28;20046;-78
2022/11/29 02:40:31;;;;;;;105.70;26.05;;;;;;;;;;4992147;28;20057;-78
2022/11/29 02:43:00;;;;;;;94.75;25.00;;;;;;;;;;4994205;28;20056;-78
2022/11/29 02:45:44;;;;;;;88.65;23.90;;;;;;;;;;4991688;28;20449;-77
2022/11/29 02:48:25;;;;;;;103.22;25.60;;;;;;;;;;4988257;28;20056;-78
2022/11/29 02:51:03;;;;;;;104.22;27.38;;;;;;;;;;4972926;28;20041;-78
2022/11/29 02:53:29;;;;;;;119.63;25.65;;;;;;;;;;4988379;28;20551;-78
2022/11/29 02:56:12;;;;;;;110.88;26.58;;;;;;;;;;4987250;28;20987;-78
2022/11/29 02:58:56;;;;;;;99.97;25.45;;;;;;;;;;4981941;28;20083;-78
2022/11/29 03:01:35;;;;;;;110.38;24.95;;;;;;;;;;4970385;28;20045;-79
2022/11/29 03:04:20;;;;;;;113.72;24.95;;;;;;;;;;4981166;28;20147;-78
2022/11/29 03:06:54;;;;;;;127.75;27.85;;;;;;;;;;4989088;28;20049;-78
2022/11/29 03:09:32;;;;;;;112.50;25.83;;;;;;;;;;4986422;28;20099;-78
2022/11/29 03:12:06;;;;;;;105.25;26.83;;;;;;;;;;4977171;28;22195;-78
2022/11/29 03:14:44;;;;;;;99.53;23.95;;;;;;;;;;4986804;28;21981;-78
2022/11/29 03:17:24;;;;;;;117.38;26.95;;;;;;;;;;4973817;28;20060;-78
2022/11/29 03:20:10;;;;;;;102.63;25.25;;;;;;;;;;4987547;28;20047;-78
2022/11/29 03:22:57;;;;;;;133.52;27.15;;;8.30;99.90;;;;;;4972062;28;20119;-78
2022/11/29 03:25:23;;;;;;;111.32;26.88;;;;;;;;;;4986051;28;20041;-78
2022/11/29 03:28:00;;;;;;;106.55;27.33;;;;;;;;;;4988285;28;20045;-78
2022/11/29 03:30:27;;;;;;;110.60;26.90;;;;;;;;;;4975594;28;20120;-78
2022/11/29 03:33:02;;;;;;;122.55;28.05;;;;;;;;;;4993998;28;20079;-78
2022/11/29 03:35:37;;;;;;;111.88;27.48;;;;;;;;;;4991050;28;20052;-79
2022/11/29 03:38:16;;;;;;;109.13;26.15;;;;;;;;;;4991181;28;20048;-78
2022/11/29 03:40:55;;;;;;;101.63;27.23;;;;;;;;;;4992812;28;20136;-78
2022/11/29 03:43:36;;;;;;;111.78;26.23;;;;;;;;;;4988565;28;22103;-78
2022/11/29 03:46:04;;;;;;;105.93;27.25;;;;;;;;;;4989671;28;20601;-79
2022/11/29 03:48:43;;;;;;;119.28;28.48;;;;;;;;;;4971216;28;20065;-79
2022/11/29 03:51:15;;;;;;;125.53;28.95;;;;;;;;;;4980437;28;20133;-79
2022/11/29 03:53:41;;;;;;;108.57;26.98;;;;;;;;;;4992452;28;20045;-79
2022/11/29 03:56:40;;;;;;;124.80;29.08;;;;;;;;;;4990596;28;20498;-79
2022/11/29 03:59:25;;;;;;;90.72;24.70;;;;;;;;;;4978230;28;20184;-79
2022/11/29 04:02:13;;;;;;;102.57;27.02;;;;;;;;;;4974098;28;21108;-79
2022/11/29 04:04:46;;;;;;;118.15;28.08;;;;;;;;;;4977265;28;20152;-80
2022/11/29 04:07:12;;;;;;;109.05;27.00;;;;;;;;;;4978755;28;20588;-79
2022/11/29 04:09:41;;;;;;;97.55;25.95;;;;;;;;;;4999872;28;20062;-79
2022/11/29 04:12:26;;;;;;;110.78;27.45;;;;;;;;;;4979084;28;20164;-79
2022/11/29 04:15:04;;;;;;;115.35;28.52;;;;;;;;;;4991684;28;20042;-79
2022/11/29 04:17:46;;;;;;;138.23;30.35;;;;;;;;;;4980495;28;20931;-80
2022/11/29 04:20:24;;;;;;;102.32;25.77;;;;;;;;;;4992048;28;20049;-78
2022/11/29 04:22:56;;;;;;;95.50;26.63;;;;;;;;;;4990656;28;20077;-79
2022/11/29 04:25:25;;;;;;;100.80;27.17;;;;;;;;;;4995585;28;20061;-79
2022/11/29 04:27:57;;;;;;;109.45;28.25;;;;;;;;;;4978046;28;20494;-79
2022/11/29 04:30:24;;;;;;;98.53;28.60;;;;;;;;;;4983224;28;20073;-78
2022/11/29 04:32:56;;;;;;;99.43;27.05;;;;;;;;;;4999184;28;20059;-79
2022/11/29 04:35:35;;;;;;;97.85;28.83;;;;;;;;;;4995600;28;20041;-78
2022/11/29 04:38:07;;;;;;;100.90;27.63;;;;;;;;;;4995417;28;20072;-78
2022/11/29 04:40:46;;;;;;;96.88;28.10;;;;;;;;;;4995037;28;20049;-79
2022/11/29 04:43:12;;;;;;;97.93;28.52;;;;;;;;;;4998796;28;20456;-79
2022/11/29 04:45:57;;;;;;;87.65;28.65;;;;;;;;;;4987004;28;20151;-79
2022/11/29 04:48:50;;;;;;;91.60;27.10;;;;;;;;;;4973438;28;20049;-80
2022/11/29 04:51:35;;;;;;;87.60;27.83;;;;;;;;;;4993419;28;21979;-79
2022/11/29 04:54:20;;;;;;;84.95;27.63;;;;;;;;;;4991672;28;20053;-79
2022/11/29 04:56:48;;;;;;;87.78;28.30;;;;;;;;;;4979926;28;20488;-79
2022/11/29 04:59:15;;;;;;;84.80;27.58;;;;;;;;;;4997188;28;21590;-79
2022/11/29 05:01:48;;;;;;;87.57;26.77;;;;;;;;;;4994071;28;20042;-78
2022/11/29 05:04:23;;;;;;;78.60;26.50;;;;;;;;;;4973714;28;20049;-79
2022/11/29 05:07:01;;;;;;;84.20;25.88;;;;;;;;;;5005872;28;20044;-78
2022/11/29 05:09:51;;;;;;;86.30;28.33;;;;;;;;;;4975030;28;20115;-79
2022/11/29 05:12:29;;;;;;;82.15;27.33;;;;;;;;;;4988570;28;20065;-78
2022/11/29 05:15:13;;;;;;;82.68;27.90;;;;;;;;;;4998617;28;20045;-79
2022/11/29 05:18:02;;;;;;;77.00;25.40;;;;;;;;;;5001950;28;20041;-78
2022/11/29 05:20:31;;;;;;;86.68;29.20;;;;;;;;;;5001378;28;20048;-78
2022/11/29 05:23:11;;;;;;;76.45;28.33;;;;;;;;;;5001307;28;20053;-78
2022/11/29 05:25:56;;;;;;;78.50;26.95;;;;;;;;;;4999667;28;20142;-79
2022/11/29 05:28:29;;;;;;;85.30;28.17;;;;;;;;;;4998445;28;20514;-79
2022/11/29 05:31:01;;;;;;;92.18;26.50;;;;;;;;;;5007982;28;20046;-79
2022/11/29 05:33:47;;;;;;;76.05;26.05;;;;;;;;;;5004053;28;20084;-79
2022/11/29 05:36:38;;;;;;;91.45;29.65;;;;;;;;;;4983281;28;20263;-79
2022/11/29 05:39:18;;;;;;;81.68;28.35;;;;;;;;;;4996761;28;20045;-78
2022/11/29 05:42:03;;;;;;;72.20;26.58;;;;;;;;;;4998647;28;20440;-80
2022/11/29 05:44:37;;;;;;;76.60;29.08;;;;;;;;;;5005650;28;20041;-80
2022/11/29 05:47:05;;;;;;;77.95;27.20;;;;;;;;;;5008344;28;20528;-79
2022/11/29 05:49:41;;;;;;;72.18;25.67;;;;;;;;;;5008285;28;20040;-79
2022/11/29 05:52:24;;;;;;;66.82;27.02;;;;;;;;;;4979917;28;20041;-80
2022/11/29 05:55:01;;;;;;;81.43;28.48;;;;;;;;;;4999413;28;20218;-79
2022/11/29 05:57:27;;;;;;;66.50;27.58;;;;;;;;;;4984592;28;20092;-80
2022/11/29 05:59:55;;;;;;;68.35;25.90;;;;;;;;;;5001060;28;20486;-80
2022/11/29 06:02:28;;;;;;;74.20;27.65;;;;;;;;;;5001573;28;20053;-81
2022/11/29 06:05:02;;;;;;;65.82;26.30;;;;;;;;;;4998266;28;20049;-79
2022/11/29 06:07:47;;;;;;;77.78;27.77;;;;;;;;;;5000951;28;20073;-79
2022/11/29 06:10:16;;;;;;;72.22;25.63;;;;;;;;;;4997367;28;20187;-79
2022/11/29 06:12:44;;;;;;;66.25;25.73;;;;;;;;;;5002752;28;20041;-80
2022/11/29 06:15:32;;;;;;;63.70;25.98;;;;;;;;;;5010531;28;20049;-80
2022/11/29 06:18:02;;;;;;;65.65;24.55;;;;;;;;;;5010405;28;20042;-80
2022/11/29 06:20:54;;;;;;;69.38;25.00;;;;;;;;;;5007792;28;20048;-80
2022/11/29 06:23:40;;;;;;;72.13;26.00;;;;;;;;;;4992389;28;20804;-80
2022/11/29 06:26:28;;;;;;;73.05;26.55;;;;;;;;;;4995893;28;20203;-80
2022/11/29 06:29:13;;;;;;;58.65;23.88;;;;;;;;;;5000967;28;20045;-81
2022/11/29 06:31:43;;;;;;;70.00;26.48;;;;;;;;;;5001841;28;20041;-80
2022/11/29 06:34:09;;;;;;;58.70;23.45;;;;;;;;;;5000680;28;20235;-81
2022/11/29 06:36:47;;;;;;;60.28;23.30;;;;;;;;;;4995447;28;20151;-81
2022/11/29 06:39:14;;;;;;;62.80;22.83;;;;;;;;;;4984478;28;20045;-81
2022/11/29 06:41:40;;;;;;;65.15;24.90;;;;;;;;;;4981628;28;20616;-80
2022/11/29 06:44:06;;;;;;;68.63;24.75;;;;;;;;;;4998947;28;20041;-81
2022/11/29 06:46:38;;;;;;;66.15;26.30;;;;;;;;;;5001299;28;20045;-81
2022/11/29 06:49:23;;;;;;;68.00;24.10;;;;;;;;;;4991380;28;20049;-82
2022/11/29 06:51:52;;;;;;;67.07;25.58;;;;;;;;;;4984751;28;20042;-80
2022/11/29 06:54:18;;;;;;;61.40;23.90;;;;;;;;;;4998578;28;20081;-80
2022/11/29 06:56:58;;;;;;;66.35;22.52;;;;;;;;;;4979118;28;20041;-80
2022/11/29 06:59:27;;;;;;;68.43;23.88;;;;;;;;;;4996267;28;20049;-79
2022/11/29 07:01:56;;;;;;;62.00;23.38;;;;;;;;;;5000327;28;20052;-80
2022/11/29 07:04:22;;;;;;;53.72;22.40;;;;;;;;;;4999986;28;20037;-81
2022/11/29 07:06:49;;;;;;;65.55;23.10;;;;;;;;;;4979130;28;20038;-80
2022/11/29 07:09:20;;;;;;;57.55;20.92;;;;;;;;;;5005431;28;20152;-80
2022/11/29 07:11:47;;;;;;;60.83;23.35;;;;;;;;;;4998568;28;20915;-80
2022/11/29 07:14:13;;;;;;;57.45;21.95;;;;;;;;;;4984277;28;20057;-80
2022/11/29 07:16:55;;;;;;;59.70;21.80;;;;;;;;;;4994537;28;20081;-79
2022/11/29 07:19:36;;;;;;;63.63;22.33;;;;;;;;;;4994623;28;20072;-79
2022/11/29 07:22:05;;;;;;;55.28;20.65;;;;;;;;;;4995712;28;20073;-80
2022/11/29 07:24:31;;;;;;;58.92;21.13;;;;;;;;;;4977614;28;20128;-80
2022/11/29 07:27:07;;;;;;;53.45;21.17;;;;;;;;;;4996982;28;20060;-81
2022/11/29 07:29:48;;;;;;;59.60;20.50;;;;;;;;;;4999079;28;20045;-79
2022/11/29 07:32:14;;;;;;;61.08;21.60;;;;;;;;;;4984701;28;20099;-80
2022/11/29 07:34:40;;;;;;;74.53;22.85;;;;;;;;;;4997155;28;20041;-80
2022/11/29 07:37:09;;;;;;;60.97;20.33;;;;;;;;;;4998581;28;20050;-80
2022/11/29 07:39:48;;;;;;;60.15;20.52;;;;;;;;;;5004489;28;20049;-80
2022/11/29 07:42:20;;;;;;;45.30;19.38;;;;;;;;;;5001253;28;20566;-78
2022/11/29 07:45:05;;;;;;;51.85;18.17;;;;;;;;;;4997768;28;20061;-79
2022/11/29 07:47:31;;;;;;;54.92;18.45;;;;;;;;;;4984530;28;20037;-79
2022/11/29 07:49:57;;;;;;;45.97;19.55;;;;;;;;;;4976927;28;20045;-80
2022/11/29 07:52:23;;;;;;;54.53;19.05;;;;;;;;;;4985587;28;20068;-80
2022/11/29 07:54:49;;;;;;;52.72;19.52;;;;;;;;;;4980971;28;20842;-80
2022/11/29 07:57:15;;;;;;;54.90;19.90;;;;;;;;;;5000976;28;20513;-81
2022/11/29 07:59:41;;;;;;;44.28;16.98;;;;;;;;;;4988486;28;20037;-80
2022/11/29 08:02:09;;;;;;;57.55;18.98;;;;;;;;;;4996160;28;20041;-80
2022/11/29 08:04:39;;;;;;;44.75;17.60;;;;;;;;;;4995771;28;20077;-80
2022/11/29 08:07:06;;;;;;;48.92;18.42;;;;;;;;;;4979611;28;20073;-79
2022/11/29 08:09:32;;;;;;;40.33;16.60;;;;;;;;;;4980875;28;20060;-79
2022/11/29 08:11:58;;;;;;;38.40;16.13;;;;;;;;;;4996167;28;20127;-79
2022/11/29 08:14:24;;;;;;;43.15;17.23;;;;;;;;;;4997499;28;20106;-79
2022/11/29 08:16:50;;;;;;;48.05;19.40;;;;;;;;;;4998015;28;20534;-80
2022/11/29 08:19:16;;;;;;;37.72;15.43;;;;;;;;;;4994306;28;20084;-79
2022/11/29 08:21:45;;;;;;;38.15;15.90;;;;;;;;;;4991657;28;20092;-79
2022/11/29 08:24:11;;;;;;;41.13;16.63;;;;;;;;;;4996598;28;20056;-79
2022/11/29 08:26:38;;;;;;;41.38;18.00;;;;;;;;;;4997970;28;20179;-79
2022/11/29 08:29:04;;;;;;;37.17;16.00;;;;;;;;;;4985792;28;20056;-79
2022/11/29 08:31:30;;;;;;;40.65;16.05;;;;;;;;;;4989755;28;20049;-78
2022/11/29 08:33:56;;;;;;;40.67;17.65;;;;;;;;;;4984640;28;20216;-78
2022/11/29 08:36:22;;;;;;;38.08;17.83;;;;;;;;;;4996311;28;20115;-73
2022/11/29 08:38:48;;;;;;;36.25;16.67;;;;;;;;;;4997548;28;20050;-73
2022/11/29 08:41:15;;;;;;;34.28;16.10;;;;;;;;;;4997666;28;20482;-73
2022/11/29 08:43:41;;;;;;;39.88;16.05;;;;;;;;;;4979021;28;21906;-72
2022/11/29 08:46:08;;;;;;;34.67;15.73;;;;;;;;;;4996657;28;20061;-72
2022/11/29 08:48:35;;;;;;;34.47;14.77;;;;;;;;;;4992370;28;20469;-71
2022/11/29 08:51:02;;;;;;;40.83;16.98;;;;;;;;;;4996144;28;20045;-72
2022/11/29 08:53:42;;;;;;;36.97;16.60;;;;;;;;;;4996396;28;20045;-74
2022/11/29 08:56:09;;;;;;;40.35;16.42;;;;;;;;;;4997597;28;20127;-74
2022/11/29 08:58:36;;;;;;;46.00;16.95;;;;;;;;;;4997534;28;20044;-74
2022/11/29 09:01:03;;;;;;;48.33;17.50;;;;;;;;;;4995028;28;20057;-75
2022/11/29 09:06:14;;;;;;;40.38;16.45;;;;;;;;;;4979433;28;20252;-74
2022/11/29 09:08:44;;;;;;;35.28;15.38;;;;;;;;;;5011355;28;20057;-74
2022/11/29 09:11:18;;;;;;;41.28;16.30;;;;;;;;;;4985670;28;20049;-73
2022/11/29 09:13:45;;;;;;;40.50;16.15;;;;;;;;;;4994314;28;22126;-74
2022/11/29 09:16:13;;;;;;;36.58;15.60;;;;;;;;;;4994488;28;20095;-74
2022/11/29 09:18:40;;;;;;;32.28;15.38;;;;;;;;;;4994333;28;20054;-74
2022/11/29 09:21:07;;;;;;;50.80;16.77;;;;;;;;;;4995902;28;20038;-74
2022/11/29 09:23:34;;;;;;;44.08;15.82;;;;;;;;;;4994429;28;20053;-74
2022/11/29 09:26:00;;;;;;;45.80;16.52;;;;;;;;;;4997256;28;20045;-74
2022/11/29 09:28:26;;;;;;;35.28;16.10;;;;;;;;;;4995880;28;20045;-74
2022/11/29 09:30:52;;;;;;;44.60;16.35;;;;;;;;;;4995701;28;20052;-73
2022/11/29 09:33:18;;;;;;;40.70;15.65;;;;;;;;;;4997051;28;20061;-74
2022/11/29 09:35:45;;;;;;;46.03;16.30;;;;;;;;;;4994556;28;20051;-74
2022/11/29 09:38:11;;;;;;;31.98;16.40;;;;;;;;;;4994771;28;20050;-74
2022/11/29 09:40:56;;;;;;;39.08;15.95;;;;;;;;;;5001854;28;20272;-74
2022/11/29 09:43:23;;;;;;;39.90;16.40;;;;;;;;;;4994788;28;20045;-74
2022/11/29 09:45:54;;;;;;;44.33;17.50;;;;;;;;;;4996394;28;20041;-74
2022/11/29 09:48:39;;;;;;;45.45;17.55;;;;;;;;;;4994348;28;20136;-74
2022/11/29 09:51:25;;;;;;;50.50;20.50;;;;;;;;;;4996677;28;20119;-74
2022/11/29 09:53:51;;;;;;;45.60;20.70;;;;;;;;;;5000480;28;20087;-73
2022/11/29 09:56:20;;;;;;;50.00;23.08;;;;;;;;;;4997333;28;20510;-74
2022/11/29 09:58:47;;;;;;;56.08;24.60;;;;;;;;;;4976693;28;20053;-75
2022/11/29 10:01:17;;;;;;;55.33;23.05;;;;;;;;;;4994092;28;20065;-74
2022/11/29 10:03:45;;;;;;;46.63;20.40;;;;;;;;;;4991636;28;20033;-74
2022/11/29 10:06:26;;;;;;;40.28;20.70;;;;;;;;;;4996249;28;20056;-74
2022/11/29 10:08:59;;;;;;;48.53;21.40;;;;;;;;;;4991942;28;20465;-75
2022/11/29 10:11:31;;;;;;;41.97;19.30;;;;;;;;;;4993008;28;20061;-75
2022/11/29 10:14:00;;;;;;;38.42;18.63;;;;;;;;;;4992200;28;20052;-75
2022/11/29 10:16:27;;;;;;;40.40;19.38;;;;;;;;;;4975046;28;20056;-75
2022/11/29 10:19:00;;;;;;;39.17;20.20;;;;;;;;;;4993840;28;20093;-75
2022/11/29 10:21:34;;;;;;;38.80;19.00;;;;;;;;;;4998555;28;20049;-75
2022/11/29 10:24:06;;;;;;;36.28;18.33;;;;;;;;;;4979067;28;20126;-75
2022/11/29 10:26:32;;;;;;;35.15;18.48;;;;;;;;;;4982730;28;20045;-75
2022/11/29 10:28:59;;;;;;;35.83;18.95;;;;;;;;;;4992303;28;20057;-76
2022/11/29 10:31:25;;;;;;;40.38;18.63;;;;;;;;;;4995364;28;20056;-76
2022/11/29 10:33:52;;;;;;;40.25;19.38;;;;;;;;;;4995628;28;20171;-76
2022/11/29 10:36:18;;;;;;;40.50;18.10;;;;;;;;;;4995129;28;20056;-76
2022/11/29 10:38:45;;;;;;;41.63;18.63;;;;;;;;;;4969577;28;20041;-76
2022/11/29 10:41:15;;;;;;;34.78;17.75;;;;;;;;;;4981389;28;20134;-76
2022/11/29 10:43:41;;;;;;;45.13;19.98;;;;;;;;;;4985018;28;20042;-75
2022/11/29 10:46:12;;;;;;;33.45;16.95;;;;;;;;;;4973834;28;20094;-75
2022/11/29 10:48:38;;;;;;;30.13;16.02;;;;;;;;;;4989324;28;20588;-75
2022/11/29 10:51:12;;;;;;;32.58;16.48;;;;;;;;;;4986517;28;20130;-75
2022/11/29 10:53:38;;;;;;;39.17;17.27;;;;;;;;;;4996754;28;20045;-75
2022/11/29 10:56:21;;;;;;;27.70;15.88;;;;;;;;;;4963244;28;20132;-75
2022/11/29 10:58:53;;;;;;;32.40;17.55;;;;;;;;;;4996511;28;20120;-75
2022/11/29 11:01:19;;;;;;;33.53;16.80;;;;;;;;;;4998066;28;20041;-75
2022/11/29 11:03:56;;;;;;;32.35;15.63;;;;;;;;;;4977319;28;20045;-75
2022/11/29 11:06:27;;;;;;;29.33;15.93;;;;;;;;;;4995275;28;20052;-75
2022/11/29 11:09:10;;;;;;;31.63;15.32;;;;;;;;;;4996475;28;20065;-75
2022/11/29 11:11:37;;;;;;;36.33;17.60;;;;;;;;;;4997440;28;21102;-75
2022/11/29 11:14:22;;;;;;;27.95;15.30;;;;;;;;;;4994434;28;20041;-75
2022/11/29 11:16:48;;;;;;;31.92;15.55;;;;;;;;;;4999016;28;20057;-75
2022/11/29 11:19:28;;;;;;;34.72;16.67;;;;;;;;;;4999607;28;20101;-75
2022/11/29 11:21:55;;;;;;;28.95;15.73;;;;;;;;;;4993926;28;20069;-75
2022/11/29 11:24:27;;;;;;;31.23;17.85;;;;;;;;;;4998680;28;20056;-75
2022/11/29 11:26:53;;;;;;;32.75;17.50;;;;;;;;;;4999502;28;20167;-75
2022/11/29 11:29:20;;;;;;;38.70;18.63;;;;;;;;;;4985422;28;20073;-75
2022/11/29 11:31:51;;;;;;;42.13;18.83;;;;;;;;;;4999940;28;20046;-75
2022/11/29 11:34:30;;;;;;;47.53;19.70;;;;;;;;;;4998358;28;20041;-75
2022/11/29 11:37:16;;;;;;;47.70;19.25;;;;;;;;;;4995750;28;20060;-75
2022/11/29 11:39:43;;;;;;;47.22;18.90;;;;;;;;;;4978385;28;20145;-75
2022/11/29 11:44:59;;;;;;;42.58;18.23;;;;;;;;;;4998632;28;20042;-75
2022/11/29 11:47:26;;;;;;;44.15;18.48;;;;;;;;;;4980909;28;20545;-75
2022/11/29 11:49:54;;;;;;;54.03;19.73;;;;;;;;;;5000841;28;21012;-75
2022/11/29 11:52:22;;;;;;;59.70;21.33;;;;;;;;;;4997057;28;20129;-75
2022/11/29 11:54:51;;;;;;;62.65;20.60;;;;;;;;;;4995188;28;20045;-75
2022/11/29 11:57:18;;;;;;;64.25;22.20;;;;;;;;;;4997256;28;20042;-75
2022/11/29 11:59:47;;;;;;;67.60;21.42;;;;;;;;;;4998969;28;20047;-75
2022/11/29 12:02:28;;;;;;;60.10;21.10;;;;;;;;;;4991904;28;20129;-75
2022/11/29 12:04:59;;;;;;;62.55;19.65;;;;;;;;;;4995262;28;20040;-75
2022/11/29 12:07:44;;;;;;;52.70;19.75;;;;;;;;;;4993121;28;20045;-75
2022/11/29 12:10:15;;;;;;;55.65;19.27;;;;;;;;;;4997913;28;20198;-75
2022/11/29 12:12:42;;;;;;;54.13;19.90;;;;;;;;;;4981872;28;20057;-75
2022/11/29 12:15:27;;;;;;;57.72;19.90;;;;;;;;;;4997669;28;20091;-75
2022/11/29 12:18:11;;;;;;;48.50;19.55;;;;;;;;;;4998424;28;20037;-75
2022/11/29 12:20:40;;;;;;;99.73;24.00;;;;;;;;;;4986341;28;20065;-75
2022/11/29 12:23:12;;;;;;;100.47;22.67;;;;;;;;;;4993987;28;20045;-75
2022/11/29 12:25:50;;;;;;;83.78;22.17;;;;;;;;;;4988223;28;20050;-74
2022/11/29 12:28:17;;;;;;;75.47;22.70;;;;;;;;;;4997585;28;20121;-75
2022/11/29 12:31:07;;;;;;;57.40;21.48;;;;;;;;;;4996454;28;20505;-75
2022/11/29 12:33:48;;;;;;;86.97;21.95;;;;;;;;;;4984135;28;20167;-75
2022/11/29 12:36:20;;;;;;;74.03;21.60;;;;;;;;;;5000146;28;20045;-76
2022/11/29 12:38:46;;;;;;;62.17;22.23;;;;;;;;;;4992606;28;20044;-77
2022/11/29 12:41:34;;;;;;;58.40;21.27;;;;;;;;;;4995650;28;20116;-76
2022/11/29 12:44:02;;;;;;;61.67;23.20;;;;;;;;;;4994285;28;20478;-77
2022/11/29 12:46:29;;;;;;;49.00;20.80;;;;;;;;;;4998707;28;20139;-76
2022/11/29 12:49:07;;;;;;;54.38;21.08;;;;;;;;;;4999027;28;20045;-76
2022/11/29 12:51:54;;;;;;;62.70;19.90;;;;;;;;;;4998262;28;20057;-76
2022/11/29 12:54:30;;;;;;;70.57;19.20;;;;;;;;;;5000218;28;20042;-76
2022/11/29 12:57:14;;;;;;;66.55;19.83;;;;;;;;;;4998392;28;20532;-77
2022/11/29 12:59:50;;;;;;;59.03;19.42;;;;;;;;;;4983486;28;20036;-78
2022/11/29 13:02:41;;;;;;;78.65;20.33;;;;;;;;;;4998648;28;20117;-77
2022/11/29 13:05:23;;;;;;;78.45;20.70;;;;;;;;;;4995141;28;20064;-78
2022/11/29 13:08:06;;;;;;;103.38;21.58;;;;;;;;;;5000032;28;20066;-77
2022/11/29 13:10:55;;;;;;;93.72;20.92;;;;;;;;;;4992784;28;20049;-77
2022/11/29 13:13:27;;;;;;;78.93;20.15;;;;;;;;;;5000947;28;20042;-78
2022/11/29 13:16:02;;;;;;;58.47;19.52;;;;;;;;;;4997475;28;20048;-77
2022/11/29 13:18:37;;;;;;;59.85;17.90;;;;;;;;;;4998666;28;20048;-77
2022/11/29 13:21:07;;;;;;;68.72;19.33;;;;;;;;;;4980680;28;20045;-77
2022/11/29 13:23:43;;;;;;;86.15;20.02;;;;;;;;;;4997497;28;20041;-77
2022/11/29 13:26:10;;;;;;;49.10;18.20;;;;;;;;;;4995996;28;20045;-78
2022/11/29 13:28:40;;;;;;;65.55;17.52;;;;;;;;;;4994588;28;20124;-77
2022/11/29 13:31:20;;;;;;;47.85;16.23;;;;;;;;;;4983934;28;20056;-78
2022/11/29 13:33:53;;;;;;;59.05;16.95;;;;;;;;;;4996943;28;22254;-78
2022/11/29 13:36:28;;;;;;;56.38;18.00;;;;;;;;;;5001347;28;20107;-77
2022/11/29 13:38:57;;;;;;;59.28;17.80;;;;;;;;;;4979430;28;20041;-78
2022/11/29 13:41:30;;;;;;;49.47;20.27;;;;;;;;;;4995909;28;20065;-77
2022/11/29 13:44:20;;;;;;;61.15;20.17;;;;;;;;;;4993274;28;20041;-77
2022/11/29 13:47:02;;;;;;;42.88;17.50;;;;;;;;;;4990464;28;22007;-78
2022/11/29 13:49:47;;;;;;;33.50;16.05;;;;;;;;;;4987520;28;20045;-78
2022/11/29 13:52:32;;;;;;;43.17;16.55;;;;;;;;;;4999321;28;21021;-77
2022/11/29 13:55:10;;;;;;;41.80;17.15;;;;;;;;;;4997822;28;20428;-78
2022/11/29 13:57:52;;;;;;;36.17;15.77;;;;;;;;;;4991848;28;20639;-78
2022/11/29 14:00:28;;;;;;;40.72;16.45;;;;;;;;;;4982951;28;20037;-78
2022/11/29 14:02:55;;;;;;;32.65;14.55;;;;;;;;;;4987896;28;20041;-80
2022/11/29 14:05:26;;;;;;;44.10;16.83;;;;;;;;;;4992276;28;20091;-78
2022/11/29 14:08:11;;;;;;;38.10;17.23;;;;;;;;;;4977793;28;20090;-78
2022/11/29 14:10:37;;;;;;;35.80;16.30;;;;;;;;;;5002547;28;20061;-78
2022/11/29 14:13:04;;;;;;;27.42;16.00;;;;;;;;;;5002923;28;20481;-77
2022/11/29 14:15:32;;;;;;;30.38;16.50;;;;;;;;;;4998746;28;20045;-78
2022/11/29 14:17:58;;;;;;;23.70;15.82;;;;;;;;;;4995815;28;20867;-78
2022/11/29 14:20:24;;;;;;;26.95;14.90;;;;;;;;;;4980637;28;20045;-77
2022/11/29 14:23:08;;;;;;;28.17;15.70;;;;;;;;;;5002085;28;20050;-77
2022/11/29 14:25:35;;;;;;;31.85;17.52;;;;;;;;;;4992729;28;20042;-77
2022/11/29 14:28:13;;;;;;;26.50;15.00;;;;;;;;;;5002666;28;20044;-77
2022/11/29 14:30:45;;;;;;;28.75;16.77;;;;;;;;;;4985204;28;20940;-77
2022/11/29 14:33:26;;;;;;;34.38;16.48;;;;;;;;;;5004298;28;20041;-78
2022/11/29 14:36:01;;;;;;;23.75;15.43;;;;;;;;;;4998098;28;20502;-78
2022/11/29 14:38:30;;;;;;;27.85;16.63;;;;;;;;;;4995163;28;20071;-79
2022/11/29 14:41:19;;;;;;;26.80;17.45;;;;;;;;;;4996773;28;20934;-78
2022/11/29 14:43:45;;;;;;;31.98;22.00;;;;;;;;;;5001812;28;20064;-78
2022/11/29 14:46:14;;;;;;;25.63;17.23;;;;;;;;;;4996292;28;20053;-78
2022/11/29 14:48:46;;;;;;;28.27;18.60;;;;;;;;;;5000098;28;20581;-79
2022/11/29 14:51:15;;;;;;;30.45;18.83;;;;;;;;;;4979881;28;20045;-78
2022/11/29 14:53:42;;;;;;;27.85;18.48;;;;;;;;;;4998940;28;20057;-78